createdAt,value
2022-09-28T00:01:30.288Z,25.48
2022-09-28T00:03:58.333Z,22.48
2022-09-28T00:06:28.266Z,21.20
2022-09-28T00:08:55.738Z,21.88
2022-09-28T00:11:27.513Z,21.15
2022-09-28T00:13:58.864Z,20.83
2022-09-28T00:16:29.656Z,20.92
2022-09-28T00:18:56.969Z,19.20
2022-09-28T00:21:26.929Z,16.50
2022-09-28T00:24:14.651Z,14.82
2022-09-28T00:27:02.940Z,14.32
2022-09-28T00:29:35.455Z,13.32
2022-09-28T00:32:09.829Z,12.85
2022-09-28T00:34:43.284Z,11.48
2022-09-28T00:37:11.625Z,9.88
2022-09-28T00:39:41.462Z,7.60
2022-09-28T00:42:15.195Z,8.23
2022-09-28T00:44:55.919Z,7.65
2022-09-28T00:47:31.548Z,7.35
2022-09-28T00:50:05.672Z,6.82
2022-09-28T00:52:45.935Z,6.97
2022-09-28T00:55:21.891Z,7.07
2022-09-28T00:57:52.091Z,6.97
2022-09-28T01:00:19.959Z,6.38
2022-09-28T01:02:48.121Z,5.75
2022-09-28T01:05:24.277Z,6.32
2022-09-28T01:07:52.052Z,5.18
2022-09-28T01:10:18.999Z,5.57
2022-09-28T01:12:45.801Z,5.03
2022-09-28T01:15:15.617Z,5.13
2022-09-28T01:17:52.645Z,5.05
2022-09-28T01:20:34.099Z,4.13
2022-09-28T01:23:14.210Z,4.30
2022-09-28T01:25:50.975Z,4.68
2022-09-28T01:28:20.723Z,3.67
2022-09-28T01:30:55.914Z,4.63
2022-09-28T01:33:28.102Z,4.28
2022-09-28T01:36:05.601Z,4.20
2022-09-28T01:38:40.092Z,4.85
2022-09-28T01:41:08.395Z,4.43
2022-09-28T01:43:40.300Z,4.47
2022-09-28T01:46:23.846Z,4.30
2022-09-28T01:48:56.912Z,4.18
2022-09-28T01:51:36.911Z,4.07
2022-09-28T01:54:12.206Z,3.50
2022-09-28T01:56:47.482Z,2.85
2022-09-28T01:59:20.545Z,3.08
2022-09-28T02:01:55.403Z,3.13
2022-09-28T02:04:32.640Z,2.88
2022-09-28T02:07:06.370Z,2.53
2022-09-28T02:09:47.334Z,3.00
2022-09-28T02:12:21.114Z,2.45
2022-09-28T02:14:52.110Z,2.92
2022-09-28T02:17:20.695Z,2.95
2022-09-28T02:19:48.057Z,2.50
2022-09-28T02:22:32.554Z,2.67
2022-09-28T02:25:05.324Z,2.45
2022-09-28T02:27:45.524Z,2.60
2022-09-28T02:30:13.426Z,2.53
2022-09-28T02:32:45.090Z,2.60
2022-09-28T02:35:15.532Z,2.67
2022-09-28T02:37:43.346Z,2.40
2022-09-28T02:40:15.842Z,2.72
2022-09-28T02:42:50.401Z,2.38
2022-09-28T02:45:34.254Z,2.05
2022-09-28T02:48:43.208Z,3.13
2022-09-28T02:51:27.619Z,2.93
2022-09-28T02:54:19.474Z,3.10
2022-09-28T02:59:54.922Z,3.42
2022-09-28T03:05:06.634Z,4.70
2022-09-28T03:07:39.818Z,4.65
2022-09-28T03:10:12.597Z,4.85
2022-09-28T03:12:39.628Z,5.38
2022-09-28T03:15:07.574Z,6.05
2022-09-28T03:17:34.854Z,6.97
2022-09-28T03:20:03.239Z,7.25
2022-09-28T03:22:30.201Z,7.13
2022-09-28T03:24:57.444Z,7.45
2022-09-28T03:27:24.554Z,7.20
2022-09-28T03:29:51.446Z,8.10
2022-09-28T03:32:18.680Z,10.23
2022-09-28T03:34:45.645Z,9.68
2022-09-28T03:37:12.441Z,8.30
2022-09-28T03:39:39.553Z,8.82
2022-09-28T03:42:06.420Z,10.05
2022-09-28T03:44:36.671Z,9.25
2022-09-28T03:47:03.725Z,10.00
2022-09-28T03:49:30.547Z,9.90
2022-09-28T03:51:57.564Z,9.90
2022-09-28T03:54:24.936Z,9.50
2022-09-28T03:56:52.049Z,10.65
2022-09-28T03:59:19.291Z,10.18
2022-09-28T04:01:49.484Z,10.10
2022-09-28T04:04:16.716Z,10.95
2022-09-28T04:06:44.379Z,10.20
2022-09-28T04:09:11.752Z,10.88
2022-09-28T04:12:02.430Z,11.90
2022-09-28T04:14:25.655Z,11.73
2022-09-28T04:16:54.906Z,14.07
2022-09-28T04:19:23.842Z,16.10
2022-09-28T04:22:09.515Z,15.57
2022-09-28T04:24:37.914Z,16.88
2022-09-28T04:27:24.072Z,15.82
2022-09-28T04:29:51.661Z,17.50
2022-09-28T04:32:19.108Z,17.20
2022-09-28T04:34:45.935Z,16.85
2022-09-28T04:37:12.991Z,17.13
2022-09-28T04:39:43.110Z,17.77
2022-09-28T04:42:13.279Z,18.00
2022-09-28T04:44:40.308Z,17.27
2022-09-28T04:47:09.185Z,18.48
2022-09-28T04:49:55.229Z,16.60
2022-09-28T04:52:36.563Z,18.10
2022-09-28T04:55:05.260Z,18.52
2022-09-28T04:57:35.243Z,17.63
2022-09-28T05:00:02.147Z,17.85
2022-09-28T05:02:30.626Z,17.67
2022-09-28T05:05:23.465Z,18.80
2022-09-28T05:08:29.046Z,14.85
2022-09-28T05:11:01.627Z,19.02
2022-09-28T05:13:29.884Z,18.30
2022-09-28T05:16:04.410Z,18.40
2022-09-28T05:18:35.238Z,16.77
2022-09-28T05:21:05.070Z,17.20
2022-09-28T05:23:34.307Z,18.67
2022-09-28T05:26:02.226Z,18.70
2022-09-28T05:28:32.746Z,17.73
2022-09-28T05:31:29.221Z,16.27
2022-09-28T05:34:04.679Z,14.45
2022-09-28T05:36:32.637Z,15.68
2022-09-28T05:38:59.675Z,15.20
2022-09-28T05:41:26.781Z,15.73
2022-09-28T05:43:55.042Z,13.73
2022-09-28T05:46:23.849Z,15.60
2022-09-28T05:48:52.668Z,17.73
2022-09-28T05:51:20.065Z,16.52
2022-09-28T05:53:47.445Z,14.85
2022-09-28T05:56:16.012Z,16.35
2022-09-28T05:58:44.760Z,18.02
2022-09-28T06:01:12.504Z,16.48
2022-09-28T06:03:57.902Z,15.48
2022-09-28T06:06:25.538Z,15.45
2022-09-28T06:08:52.646Z,14.77
2022-09-28T06:11:45.843Z,14.23
2022-09-28T06:14:32.885Z,13.27
2022-09-28T06:17:00.101Z,13.70
2022-09-28T06:19:27.194Z,14.25
2022-09-28T06:22:20.486Z,14.30
2022-09-28T06:24:57.281Z,12.73
2022-09-28T06:27:25.316Z,13.43
2022-09-28T06:29:52.862Z,13.88
2022-09-28T06:32:19.859Z,13.95
2022-09-28T06:34:51.712Z,12.80
2022-09-28T06:37:23.056Z,14.05
2022-09-28T06:39:50.946Z,13.35
2022-09-28T06:42:18.748Z,13.48
2022-09-28T06:45:04.879Z,13.63
2022-09-28T06:48:03.800Z,12.63
2022-09-28T06:50:45.623Z,13.40
2022-09-28T06:53:24.903Z,13.32
2022-09-28T06:56:10.440Z,12.48
2022-09-28T06:58:37.593Z,12.70
2022-09-28T07:01:04.578Z,13.65
2022-09-28T07:03:42.226Z,11.80
2022-09-28T07:06:48.113Z,12.77
2022-09-28T07:09:36.942Z,12.63
2022-09-28T07:12:13.563Z,13.50
2022-09-28T07:14:49.777Z,12.10
2022-09-28T07:17:17.328Z,12.10
2022-09-28T07:19:44.573Z,11.43
2022-09-28T07:22:18.579Z,11.77
2022-09-28T07:24:48.033Z,11.15
2022-09-28T07:27:34.567Z,10.45
2022-09-28T07:30:20.435Z,11.23
2022-09-28T07:33:06.195Z,10.57
2022-09-28T07:35:39.094Z,10.18
2022-09-28T07:38:08.012Z,10.50
2022-09-28T07:40:54.895Z,10.00
2022-09-28T07:43:22.857Z,9.63
2022-09-28T07:45:54.889Z,10.30
2022-09-28T07:48:22.930Z,9.45
2022-09-28T07:51:15.027Z,10.25
2022-09-28T07:53:48.119Z,9.57
2022-09-28T07:56:17.441Z,10.85
2022-09-28T07:58:53.990Z,10.05
2022-09-28T08:01:39.042Z,10.27
2022-09-28T08:04:07.980Z,10.98
2022-09-28T08:06:36.196Z,11.60
2022-09-28T08:09:04.988Z,10.75
2022-09-28T08:11:50.551Z,10.07
2022-09-28T08:14:35.866Z,10.93
2022-09-28T08:17:16.936Z,10.85
2022-09-28T08:20:05.254Z,10.45
2022-09-28T08:22:33.370Z,9.93
2022-09-28T08:25:01.016Z,10.18
2022-09-28T08:27:29.217Z,10.40
2022-09-28T08:29:56.457Z,8.98
2022-09-28T08:32:49.489Z,9.05
2022-09-28T08:35:35.439Z,9.23
2022-09-28T08:38:29.649Z,9.18
2022-09-28T08:41:05.993Z,8.68
2022-09-28T08:44:08.236Z,7.53
2022-09-28T08:47:40.951Z,7.07
2022-09-28T08:50:39.760Z,7.50
2022-09-28T08:53:23.974Z,7.72
2022-09-28T08:56:11.326Z,6.93
2022-09-28T08:58:43.297Z,7.80
2022-09-28T09:03:48.181Z,7.32
2022-09-28T09:06:57.875Z,6.93
2022-09-28T09:09:35.660Z,6.68
2022-09-28T09:12:16.834Z,8.88
2022-09-28T09:15:43.451Z,6.55
2022-09-28T09:18:51.512Z,5.72
2022-09-28T09:21:58.092Z,6.10
2022-09-28T09:24:27.492Z,5.88
2022-09-28T09:27:05.708Z,6.63
2022-09-28T09:29:42.445Z,6.85
2022-09-28T09:32:19.606Z,7.07
2022-09-28T09:35:21.460Z,6.00
2022-09-28T09:38:11.679Z,5.35
2022-09-28T09:41:02.636Z,6.80
2022-09-28T09:44:44.106Z,5.55
2022-09-28T09:47:32.179Z,4.95
2022-09-28T09:50:11.394Z,5.13
2022-09-28T09:52:52.536Z,4.93
2022-09-28T09:55:29.625Z,4.38
2022-09-28T09:58:24.148Z,4.20
2022-09-28T10:01:07.149Z,4.28
2022-09-28T10:04:08.746Z,3.83
2022-09-28T10:06:38.731Z,3.70
2022-09-28T10:09:30.319Z,3.08
2022-09-28T10:12:12.521Z,3.83
2022-09-28T10:14:39.466Z,4.05
2022-09-28T10:17:14.354Z,3.47
2022-09-28T10:20:00.212Z,3.80
2022-09-28T10:22:44.008Z,3.45
2022-09-28T10:25:15.886Z,3.78
2022-09-28T10:27:46.294Z,4.82
2022-09-28T10:30:25.960Z,4.18
2022-09-28T10:32:59.141Z,3.17
2022-09-28T10:35:40.478Z,3.17
2022-09-28T10:38:18.659Z,2.95
2022-09-28T10:40:55.815Z,3.00
2022-09-28T10:43:38.582Z,2.88
2022-09-28T10:46:13.985Z,2.67
2022-09-28T10:48:45.819Z,2.67
2022-09-28T10:51:12.807Z,2.97
2022-09-28T10:53:41.732Z,2.40
2022-09-28T10:56:39.958Z,3.05
2022-09-28T10:59:29.462Z,2.65
2022-09-28T11:02:22.602Z,2.70
2022-09-28T11:05:01.857Z,2.15
2022-09-28T11:07:45.406Z,2.72
2022-09-28T11:10:29.901Z,2.17
2022-09-28T11:13:10.067Z,2.40
2022-09-28T11:15:43.440Z,2.38
2022-09-28T11:18:31.603Z,2.60
2022-09-28T11:21:15.878Z,2.88
2022-09-28T11:24:07.836Z,2.08
2022-09-28T11:26:42.802Z,2.10
2022-09-28T11:29:39.932Z,2.20
2022-09-28T11:32:43.909Z,2.63
2022-09-28T11:35:24.131Z,1.90
2022-09-28T11:38:12.473Z,1.98
2022-09-28T11:41:20.062Z,1.60
2022-09-28T11:44:07.984Z,1.73
2022-09-28T11:46:56.459Z,2.30
2022-09-28T11:49:33.535Z,2.60
2022-09-28T11:52:23.305Z,1.55
2022-09-28T11:55:18.676Z,1.20
2022-09-28T11:57:54.585Z,2.22
2022-09-28T12:00:22.551Z,2.40
2022-09-28T12:03:06.041Z,1.33
2022-09-28T12:05:46.116Z,1.60
2022-09-28T12:08:22.000Z,1.75
2022-09-28T12:11:13.489Z,1.70
2022-09-28T12:14:04.334Z,1.45
2022-09-28T12:17:11.818Z,1.57
2022-09-28T12:19:46.981Z,2.63
2022-09-28T12:22:24.351Z,2.15
2022-09-28T12:24:54.560Z,1.90
2022-09-28T12:27:38.698Z,2.00
2022-09-28T12:30:14.130Z,2.05
2022-09-28T12:32:52.230Z,2.22
2022-09-28T12:35:38.122Z,1.92
2022-09-28T12:38:34.630Z,2.28
2022-09-28T12:41:23.027Z,1.65
2022-09-28T12:44:04.893Z,2.10
2022-09-28T12:46:53.817Z,1.70
2022-09-28T12:50:33.253Z,1.95
2022-09-28T12:55:22.828Z,1.45
2022-09-28T12:57:57.149Z,2.10
2022-09-28T13:00:31.144Z,2.50
2022-09-28T13:03:19.716Z,2.15
2022-09-28T13:06:08.557Z,2.42
2022-09-28T13:09:01.216Z,2.20
2022-09-28T13:11:33.254Z,2.17
2022-09-28T13:14:37.332Z,2.30
2022-09-28T13:17:23.136Z,1.80
2022-09-28T13:20:01.628Z,2.30
2022-09-28T13:22:58.096Z,2.30
2022-09-28T13:25:28.924Z,2.40
2022-09-28T13:28:02.300Z,1.92
2022-09-28T13:30:33.490Z,2.15
2022-09-28T13:33:04.380Z,2.13
2022-09-28T13:35:33.340Z,2.78
2022-09-28T13:38:16.186Z,2.20
2022-09-28T13:41:05.247Z,2.17
2022-09-28T13:44:03.479Z,1.95
2022-09-28T13:46:36.826Z,1.73
2022-09-28T13:49:12.937Z,1.90
2022-09-28T13:51:58.207Z,1.90
2022-09-28T13:55:02.655Z,1.98
2022-09-28T13:57:44.342Z,1.75
2022-09-28T14:00:11.616Z,1.63
2022-09-28T14:02:46.960Z,1.40
2022-09-28T14:05:23.469Z,1.50
2022-09-28T14:08:55.399Z,1.40
2022-09-28T14:11:34.484Z,1.70
2022-09-28T14:14:07.818Z,1.40
2022-09-28T14:16:36.983Z,1.60
2022-09-28T14:19:12.946Z,1.30
2022-09-28T14:22:11.032Z,1.77
2022-09-28T14:25:03.463Z,1.67
2022-09-28T14:27:57.767Z,1.98
2022-09-28T14:30:27.983Z,1.77
2022-09-28T14:32:58.357Z,1.88
2022-09-28T14:36:04.219Z,2.33
2022-09-28T14:39:04.599Z,1.75
2022-09-28T14:41:43.129Z,1.90
2022-09-28T14:44:12.822Z,1.98
2022-09-28T14:46:44.335Z,1.88
2022-09-28T14:49:17.472Z,2.10
2022-09-28T14:51:53.139Z,1.70
2022-09-28T14:54:22.636Z,2.00
2022-09-28T14:57:08.224Z,2.75
2022-09-28T14:59:42.904Z,1.77
2022-09-28T15:02:20.353Z,2.03
2022-09-28T15:05:00.219Z,2.63
2022-09-28T15:07:32.889Z,2.00
2022-09-28T15:10:02.117Z,2.00
2022-09-28T15:12:31.325Z,2.03
2022-09-28T15:15:08.630Z,2.33
2022-09-28T15:17:40.240Z,1.95
2022-09-28T15:22:49.424Z,2.00
2022-09-28T15:25:22.027Z,1.98
2022-09-28T15:27:54.935Z,2.00
2022-09-28T15:30:27.025Z,2.30
2022-09-28T15:32:56.843Z,2.53
2022-09-28T15:35:27.148Z,2.17
2022-09-28T15:37:55.154Z,2.40
2022-09-28T15:40:32.284Z,2.45
2022-09-28T15:42:59.879Z,2.60
2022-09-28T15:45:38.492Z,3.08
2022-09-28T15:48:26.297Z,3.00
2022-09-28T15:51:11.237Z,2.65
2022-09-28T15:53:43.883Z,3.05
2022-09-28T15:56:12.096Z,2.85
2022-09-28T15:58:39.921Z,3.17
2022-09-28T16:01:36.430Z,3.35
2022-09-28T16:04:37.869Z,3.05
2022-09-28T16:07:11.845Z,3.33
2022-09-28T16:10:02.880Z,2.95
2022-09-28T16:12:36.441Z,3.25
2022-09-28T16:15:26.643Z,3.90
2022-09-28T16:17:56.942Z,3.58
2022-09-28T16:20:36.549Z,3.63
2022-09-28T16:23:16.685Z,3.83
2022-09-28T16:26:04.982Z,3.63
2022-09-28T16:28:38.381Z,3.53
2022-09-28T16:31:23.033Z,4.80
2022-09-28T16:33:56.793Z,3.70
2022-09-28T16:36:27.661Z,4.20
2022-09-28T16:38:55.253Z,3.22
2022-09-28T16:41:26.631Z,3.78
2022-09-28T16:43:59.764Z,3.30
2022-09-28T16:46:32.077Z,4.05
2022-09-28T16:48:59.966Z,3.65
2022-09-28T16:51:26.929Z,3.90
2022-09-28T16:54:11.955Z,4.75
2022-09-28T16:56:39.086Z,4.20
2022-09-28T16:59:05.897Z,4.35
2022-09-28T17:01:33.129Z,4.65
2022-09-28T17:04:00.295Z,4.43
2022-09-28T17:06:27.503Z,4.60
2022-09-28T17:08:58.750Z,4.72
2022-09-28T17:11:26.270Z,4.90
2022-09-28T17:13:59.114Z,5.45
2022-09-28T17:16:50.953Z,4.40
2022-09-28T17:19:25.672Z,5.00
2022-09-28T17:21:53.082Z,4.20
2022-09-28T17:24:20.909Z,4.47
2022-09-28T17:26:50.979Z,5.32
2022-09-28T17:29:18.847Z,5.68
2022-09-28T17:31:47.023Z,5.43
2022-09-28T17:34:16.394Z,5.78
2022-09-28T17:36:44.967Z,5.70
2022-09-28T17:39:13.984Z,6.07
2022-09-28T17:41:41.244Z,7.35
2022-09-28T17:44:08.735Z,6.63
2022-09-28T17:46:39.633Z,7.32
2022-09-28T17:49:10.328Z,5.88
2022-09-28T17:51:38.302Z,6.45
2022-09-28T17:54:08.072Z,6.10
2022-09-28T17:56:36.005Z,6.05
2022-09-28T17:59:10.374Z,6.05
2022-09-28T18:01:39.726Z,6.63
2022-09-28T18:04:09.197Z,6.75
2022-09-28T18:06:37.379Z,6.32
2022-09-28T18:09:05.459Z,5.97
2022-09-28T18:11:34.431Z,6.43
2022-09-28T18:14:01.454Z,6.57
2022-09-28T18:16:29.213Z,6.38
2022-09-28T18:18:58.830Z,6.88
2022-09-28T18:21:25.762Z,6.93
2022-09-28T18:23:53.078Z,7.68
2022-09-28T18:26:20.266Z,6.80
2022-09-28T18:28:47.282Z,6.85
2022-09-28T18:31:15.871Z,6.32
2022-09-28T18:33:43.444Z,7.32
2022-09-28T18:36:10.387Z,6.65
2022-09-28T18:38:38.349Z,6.97
2022-09-28T18:41:10.490Z,6.88
2022-09-28T18:43:37.822Z,6.47
2022-09-28T18:46:11.475Z,7.28
2022-09-28T18:48:40.389Z,7.78
2022-09-28T18:51:12.400Z,7.47
2022-09-28T18:53:40.329Z,8.38
2022-09-28T18:56:09.512Z,7.80
2022-09-28T18:58:38.565Z,7.22
2022-09-28T19:01:28.300Z,6.40
2022-09-28T19:03:55.146Z,7.10
2022-09-28T19:06:22.168Z,7.60
2022-09-28T19:08:54.186Z,6.85
2022-09-28T19:11:21.977Z,6.68
2022-09-28T19:13:49.089Z,7.13
2022-09-28T19:16:18.371Z,5.43
2022-09-28T19:18:45.460Z,4.70
2022-09-28T19:21:14.124Z,4.47
2022-09-28T19:23:49.020Z,5.32
2022-09-28T19:26:20.959Z,4.15
2022-09-28T19:28:48.931Z,4.63
2022-09-28T19:31:16.025Z,3.40
2022-09-28T19:33:46.474Z,3.17
2022-09-28T19:36:19.862Z,3.60
2022-09-28T19:38:46.907Z,4.00
2022-09-28T19:41:39.498Z,4.00
2022-09-28T19:44:26.914Z,4.65
2022-09-28T19:47:07.122Z,4.50
2022-09-28T19:49:37.952Z,4.10
2022-09-28T19:52:15.843Z,4.30
2022-09-28T19:54:45.415Z,4.80
2022-09-28T19:57:14.480Z,5.43
2022-09-28T19:59:41.444Z,5.63
2022-09-28T20:02:10.425Z,5.45
2022-09-28T20:04:37.325Z,5.95
2022-09-28T20:07:04.292Z,5.97
2022-09-28T20:09:33.103Z,6.00
2022-09-28T20:12:00.108Z,5.40
2022-09-28T20:14:32.866Z,5.35
2022-09-28T20:17:01.352Z,5.30
2022-09-28T20:19:28.160Z,5.20
2022-09-28T20:21:58.593Z,5.15
2022-09-28T20:24:25.674Z,5.32
2022-09-28T20:26:52.460Z,5.70
2022-09-28T20:29:19.496Z,5.43
2022-09-28T20:31:46.710Z,5.60
2022-09-28T20:34:13.728Z,6.10
2022-09-28T20:36:44.570Z,6.35
2022-09-28T20:39:12.344Z,5.88
2022-09-28T20:41:39.260Z,7.55
2022-09-28T20:44:06.762Z,8.25
2022-09-28T20:46:37.088Z,7.35
2022-09-28T20:49:05.172Z,7.57
2022-09-28T20:51:32.392Z,10.55
2022-09-28T20:53:59.957Z,10.77
2022-09-28T20:56:29.210Z,13.25
2022-09-28T20:58:56.967Z,11.07
2022-09-28T21:01:29.939Z,11.63
2022-09-28T21:03:59.484Z,11.40
2022-09-28T21:06:29.271Z,12.52
2022-09-28T21:08:56.467Z,10.48
2022-09-28T21:11:24.974Z,10.63
2022-09-28T21:13:54.228Z,9.60
2022-09-28T21:16:21.089Z,9.50
2022-09-28T21:18:48.470Z,9.80
2022-09-28T21:21:18.279Z,8.88
2022-09-28T21:23:45.239Z,9.52
2022-09-28T21:26:15.681Z,9.98
2022-09-28T21:28:44.771Z,10.63
2022-09-28T21:31:12.841Z,10.63
2022-09-28T21:33:39.768Z,11.88
2022-09-28T21:36:08.049Z,11.38
2022-09-28T21:38:35.282Z,11.45
2022-09-28T21:41:02.567Z,11.13
2022-09-28T21:43:31.640Z,10.45
2022-09-28T21:45:58.819Z,11.68
2022-09-28T21:48:27.346Z,11.15
2022-09-28T21:51:03.020Z,11.77
2022-09-28T21:53:36.684Z,12.07
2022-09-28T21:56:08.017Z,11.82
2022-09-28T21:58:35.907Z,12.18
2022-09-28T22:01:14.743Z,13.13
2022-09-28T22:03:43.979Z,13.18
2022-09-28T22:06:11.495Z,14.25
2022-09-28T22:08:39.122Z,14.00
2022-09-28T22:11:07.218Z,15.43
2022-09-28T22:13:39.150Z,13.05
2022-09-28T22:16:06.692Z,12.77
2022-09-28T22:18:34.273Z,12.32
2022-09-28T22:21:12.774Z,12.75
2022-09-28T22:23:40.626Z,13.65
2022-09-28T22:26:07.813Z,13.52
2022-09-28T22:28:35.070Z,14.13
2022-09-28T22:31:02.144Z,15.80
2022-09-28T22:33:29.630Z,15.88
2022-09-28T22:35:56.638Z,17.05
2022-09-28T22:38:24.623Z,17.90
2022-09-28T22:40:54.700Z,17.77
2022-09-28T22:43:26.015Z,16.95
2022-09-28T22:46:08.124Z,17.15
2022-09-28T22:48:35.297Z,17.50
2022-09-28T22:51:03.999Z,17.02
2022-09-28T22:53:31.100Z,15.98
2022-09-28T22:55:59.955Z,16.80
2022-09-28T22:58:27.610Z,16.50
2022-09-28T23:00:56.397Z,17.98
2022-09-28T23:03:23.600Z,16.27
2022-09-28T23:05:55.508Z,15.75
2022-09-28T23:08:23.747Z,16.33
2022-09-28T23:10:51.112Z,15.75
2022-09-28T23:13:18.623Z,16.73
2022-09-28T23:16:08.843Z,14.30
2022-09-28T23:18:38.436Z,13.63
2022-09-28T23:21:07.345Z,12.07
2022-09-28T23:23:34.536Z,11.80
2022-09-28T23:26:10.848Z,12.50
2022-09-28T23:28:37.654Z,14.15
2022-09-28T23:31:28.409Z,13.07
2022-09-28T23:34:03.455Z,14.32
2022-09-28T23:36:31.086Z,14.02
2022-09-28T23:38:58.369Z,14.35
2022-09-28T23:41:25.145Z,14.07
2022-09-28T23:43:52.768Z,13.98
2022-09-28T23:46:21.067Z,14.95
2022-09-28T23:48:49.063Z,15.80
2022-09-28T23:51:16.165Z,14.05
2022-09-28T23:53:43.427Z,15.27
2022-09-28T23:56:10.469Z,15.18
2022-09-28T23:58:37.782Z,13.88
